createdAt,value
2018-12-26T00:00:07.820Z,3.40
2018-12-26T00:02:34.298Z,3.40
2018-12-26T00:05:00.758Z,3.40
2018-12-26T00:07:27.049Z,3.50
2018-12-26T00:09:53.583Z,3.50
2018-12-26T00:12:20.046Z,3.60
2018-12-26T00:14:46.517Z,3.50
2018-12-26T00:17:12.912Z,3.60
2018-12-26T00:19:39.440Z,3.60
2018-12-26T00:22:06.107Z,3.70
2018-12-26T00:24:32.554Z,3.80
2018-12-26T00:26:59.006Z,3.80
2018-12-26T00:29:25.593Z,3.80
2018-12-26T00:31:52.202Z,3.90
2018-12-26T00:34:18.723Z,3.90
2018-12-26T00:36:45.007Z,4.00
2018-12-26T00:39:11.510Z,4.10
2018-12-26T00:41:37.987Z,4.20
2018-12-26T00:44:04.833Z,4.20
2018-12-26T00:46:31.842Z,4.30
2018-12-26T00:48:58.338Z,4.30
2018-12-26T00:51:24.822Z,4.40
2018-12-26T00:53:51.241Z,4.40
2018-12-26T00:56:17.751Z,4.40
2018-12-26T00:58:44.263Z,4.40
2018-12-26T01:01:10.817Z,4.50
2018-12-26T01:03:37.295Z,4.50
2018-12-26T01:06:03.595Z,4.50
2018-12-26T01:08:30.075Z,4.50
2018-12-26T01:10:56.559Z,4.50
2018-12-26T01:13:23.042Z,4.50
2018-12-26T01:15:49.583Z,4.50
2018-12-26T01:18:15.991Z,4.40
2018-12-26T01:20:42.254Z,4.40
2018-12-26T01:23:08.756Z,4.50
2018-12-26T01:25:35.090Z,4.50
2018-12-26T01:28:01.547Z,4.50
2018-12-26T01:30:29.087Z,4.50
2018-12-26T01:32:55.703Z,4.50
2018-12-26T01:35:22.192Z,4.60
2018-12-26T01:37:48.639Z,4.70
2018-12-26T01:40:15.222Z,4.70
2018-12-26T01:42:41.862Z,4.70
2018-12-26T01:45:08.509Z,4.70
2018-12-26T01:47:35.009Z,4.70
2018-12-26T01:50:01.498Z,4.70
2018-12-26T01:52:27.986Z,4.70
2018-12-26T01:54:54.568Z,4.60
2018-12-26T01:57:21.109Z,4.60
2018-12-26T01:59:47.597Z,4.60
2018-12-26T02:02:13.983Z,4.60
2018-12-26T02:04:40.362Z,4.60
2018-12-26T02:07:06.976Z,4.60
2018-12-26T02:09:33.566Z,4.50
2018-12-26T02:12:00.117Z,4.50
2018-12-26T02:14:26.535Z,4.60
2018-12-26T02:16:53.060Z,4.60
2018-12-26T02:19:19.594Z,4.50
2018-12-26T02:21:46.126Z,4.40
2018-12-26T02:24:12.624Z,4.30
2018-12-26T02:26:39.250Z,4.30
2018-12-26T02:29:05.883Z,4.30
2018-12-26T02:31:32.372Z,4.30
2018-12-26T02:33:58.829Z,4.30
2018-12-26T02:36:25.442Z,4.20
2018-12-26T02:38:51.933Z,4.20
2018-12-26T02:41:18.295Z,4.20
2018-12-26T02:43:44.897Z,4.10
2018-12-26T02:46:11.389Z,4.10
2018-12-26T02:48:37.760Z,4.10
2018-12-26T02:51:04.121Z,4.10
2018-12-26T02:53:30.614Z,4.10
2018-12-26T02:55:57.107Z,4.10
2018-12-26T02:58:23.593Z,4.10
2018-12-26T03:00:50.106Z,4.10
2018-12-26T03:03:16.585Z,4.10
2018-12-26T03:05:43.115Z,4.10
2018-12-26T03:08:09.592Z,4.10
2018-12-26T03:10:36.086Z,4.10
2018-12-26T03:13:02.594Z,4.10
2018-12-26T03:15:29.101Z,4.10
2018-12-26T03:17:55.790Z,4.10
2018-12-26T03:20:22.399Z,4.10
2018-12-26T03:22:48.913Z,4.10
2018-12-26T03:25:16.099Z,4.10
2018-12-26T03:27:42.697Z,4.10
2018-12-26T03:30:10.380Z,4.00
2018-12-26T03:32:36.947Z,4.00
2018-12-26T03:35:04.038Z,4.00
2018-12-26T03:37:30.541Z,4.00
2018-12-26T03:39:57.042Z,4.00
2018-12-26T03:42:25.118Z,4.00
2018-12-26T03:44:51.691Z,4.00
2018-12-26T03:47:18.869Z,4.00
2018-12-26T03:49:45.363Z,4.00
2018-12-26T03:52:11.840Z,4.00
2018-12-26T03:54:38.329Z,4.00
2018-12-26T03:57:06.297Z,4.00
2018-12-26T03:59:33.006Z,3.90
2018-12-26T04:01:59.608Z,3.90
2018-12-26T04:04:26.213Z,4.00
2018-12-26T04:06:52.628Z,3.90
2018-12-26T04:09:19.106Z,4.00
2018-12-26T04:11:46.168Z,4.00
2018-12-26T04:14:12.730Z,4.00
2018-12-26T04:16:39.552Z,3.90
2018-12-26T04:19:06.147Z,4.00
2018-12-26T04:21:33.047Z,3.90
2018-12-26T04:23:59.571Z,4.00
2018-12-26T04:26:25.915Z,4.00
2018-12-26T04:28:52.419Z,3.90
2018-12-26T04:31:18.886Z,3.90
2018-12-26T04:33:45.368Z,3.80
2018-12-26T04:36:11.950Z,3.80
2018-12-26T04:38:38.333Z,3.80
2018-12-26T04:41:04.858Z,3.70
2018-12-26T04:43:31.410Z,3.80
2018-12-26T04:45:57.894Z,3.70
2018-12-26T04:48:24.282Z,3.70
2018-12-26T04:50:50.682Z,3.70
2018-12-26T04:53:17.262Z,3.70
2018-12-26T04:55:43.772Z,3.70
2018-12-26T04:58:10.284Z,3.70
2018-12-26T05:00:36.794Z,3.70
2018-12-26T05:03:03.305Z,3.70
2018-12-26T05:05:29.992Z,3.70
2018-12-26T05:07:56.502Z,3.70
2018-12-26T05:10:22.951Z,3.70
2018-12-26T05:12:49.578Z,3.60
2018-12-26T05:15:16.084Z,3.60
2018-12-26T05:17:42.646Z,3.60
2018-12-26T05:20:09.140Z,3.60
2018-12-26T05:22:35.615Z,3.60
2018-12-26T05:25:02.106Z,3.60
2018-12-26T05:27:34.093Z,3.60
2018-12-26T05:29:56.890Z,3.60
2018-12-26T05:32:23.472Z,3.60
2018-12-26T05:34:49.846Z,3.60
2018-12-26T05:37:16.293Z,3.50
2018-12-26T05:39:42.815Z,3.60
2018-12-26T05:42:09.419Z,3.50
2018-12-26T05:44:35.924Z,3.60
2018-12-26T05:47:02.444Z,3.60
2018-12-26T05:49:28.843Z,3.70
2018-12-26T05:51:55.297Z,3.60
2018-12-26T05:54:21.807Z,3.70
2018-12-26T05:56:48.364Z,3.60
2018-12-26T05:59:14.949Z,3.60
2018-12-26T06:01:41.482Z,3.60
2018-12-26T06:04:07.890Z,3.50
2018-12-26T06:06:34.453Z,3.50
2018-12-26T06:09:01.014Z,3.40
2018-12-26T06:11:27.510Z,3.40
2018-12-26T06:13:53.911Z,3.40
2018-12-26T06:16:20.306Z,3.40
2018-12-26T06:18:46.575Z,3.30
2018-12-26T06:21:13.336Z,3.30
2018-12-26T06:23:39.723Z,3.30
2018-12-26T06:26:06.183Z,3.30
2018-12-26T06:28:32.623Z,3.20
2018-12-26T06:30:59.130Z,3.20
2018-12-26T06:33:25.446Z,3.20
2018-12-26T06:35:51.833Z,3.20
2018-12-26T06:38:18.369Z,3.20
2018-12-26T06:40:44.840Z,3.20
2018-12-26T06:43:11.306Z,3.20
2018-12-26T06:45:37.873Z,3.20
2018-12-26T06:48:04.411Z,3.20
2018-12-26T06:50:30.790Z,3.20
2018-12-26T06:52:57.317Z,3.10
2018-12-26T06:55:25.491Z,3.10
2018-12-26T06:57:59.857Z,3.10
2018-12-26T07:00:20.406Z,3.00
2018-12-26T07:02:46.876Z,2.90
2018-12-26T07:05:13.276Z,2.90
2018-12-26T07:07:40.143Z,2.90
2018-12-26T07:10:06.735Z,2.90
2018-12-26T07:12:33.150Z,2.80
2018-12-26T07:14:59.668Z,2.80
2018-12-26T07:17:26.124Z,2.80
2018-12-26T07:19:52.555Z,2.80
2018-12-26T07:22:19.131Z,2.80
2018-12-26T07:24:45.622Z,2.80
2018-12-26T07:27:12.031Z,2.70
2018-12-26T07:29:38.566Z,2.70
2018-12-26T07:32:05.410Z,2.70
2018-12-26T07:34:32.108Z,2.70
2018-12-26T07:36:58.591Z,2.70
2018-12-26T07:39:25.217Z,2.70
2018-12-26T07:41:51.638Z,2.70
2018-12-26T07:44:18.152Z,2.70
2018-12-26T07:46:44.715Z,2.60
2018-12-26T07:49:11.114Z,2.70
2018-12-26T07:51:37.750Z,2.70
2018-12-26T07:54:04.174Z,2.70
2018-12-26T07:56:30.554Z,2.70
2018-12-26T07:58:56.949Z,2.70
2018-12-26T08:01:23.448Z,2.70
2018-12-26T08:03:49.845Z,2.80
2018-12-26T08:06:16.229Z,2.70
2018-12-26T08:08:42.785Z,2.70
2018-12-26T08:11:09.255Z,2.80
2018-12-26T08:13:35.930Z,2.80
2018-12-26T08:16:02.440Z,2.70
2018-12-26T08:18:28.980Z,2.80
2018-12-26T08:20:55.466Z,2.80
2018-12-26T08:23:22.049Z,2.80
2018-12-26T08:25:48.635Z,2.90
2018-12-26T08:28:15.232Z,2.90
2018-12-26T08:30:41.910Z,2.90
2018-12-26T08:33:08.450Z,2.90
2018-12-26T08:35:36.018Z,2.90
2018-12-26T08:38:02.482Z,2.90
2018-12-26T08:40:29.029Z,2.90
2018-12-26T08:42:55.584Z,2.90
2018-12-26T08:45:21.965Z,2.90
2018-12-26T08:47:48.386Z,2.90
2018-12-26T08:50:15.787Z,2.90
2018-12-26T08:52:42.297Z,2.90
2018-12-26T08:55:08.816Z,2.90
2018-12-26T08:57:35.427Z,2.90
2018-12-26T09:00:02.118Z,2.90
2018-12-26T09:02:28.722Z,2.90
2018-12-26T09:04:55.226Z,2.90
2018-12-26T09:07:21.698Z,3.00
2018-12-26T09:09:48.170Z,3.00
2018-12-26T09:12:14.755Z,3.00
2018-12-26T09:14:41.038Z,3.00
2018-12-26T09:17:07.514Z,3.00
2018-12-26T09:19:34.006Z,3.10
2018-12-26T09:22:00.383Z,3.10
2018-12-26T09:24:26.793Z,3.10
2018-12-26T09:26:53.413Z,3.10
2018-12-26T09:29:19.918Z,3.10
2018-12-26T09:31:46.642Z,3.10
2018-12-26T09:34:13.264Z,3.20
2018-12-26T09:36:39.847Z,3.20
2018-12-26T09:39:06.455Z,3.20
2018-12-26T09:41:32.933Z,3.20
2018-12-26T09:43:59.764Z,3.20
2018-12-26T09:46:26.231Z,3.20
2018-12-26T09:48:52.979Z,3.30
2018-12-26T09:51:19.450Z,3.30
2018-12-26T09:53:46.270Z,3.30
2018-12-26T09:56:12.669Z,3.30
2018-12-26T09:58:39.148Z,3.30
2018-12-26T10:01:05.612Z,3.30
2018-12-26T10:03:32.280Z,3.30
2018-12-26T10:05:58.790Z,3.30
2018-12-26T10:08:25.244Z,3.30
2018-12-26T10:10:51.734Z,3.30
2018-12-26T10:13:18.172Z,3.30
2018-12-26T10:15:44.636Z,3.30
2018-12-26T10:18:11.014Z,3.30
2018-12-26T10:20:37.512Z,3.40
2018-12-26T10:23:04.070Z,3.40
2018-12-26T10:25:30.612Z,3.40
2018-12-26T10:27:57.412Z,3.50
2018-12-26T10:30:23.906Z,3.50
2018-12-26T10:32:50.941Z,3.50
2018-12-26T10:35:17.350Z,3.50
2018-12-26T10:37:43.962Z,3.50
2018-12-26T10:40:10.466Z,3.60
2018-12-26T10:42:36.926Z,3.50
2018-12-26T10:45:04.119Z,3.50
2018-12-26T10:47:30.623Z,3.50
2018-12-26T10:49:57.214Z,3.60
2018-12-26T10:52:27.100Z,3.50
2018-12-26T10:54:53.614Z,3.50
2018-12-26T10:57:20.180Z,3.50
2018-12-26T10:59:46.947Z,3.50
2018-12-26T11:02:13.366Z,3.50
2018-12-26T11:04:39.849Z,3.60
2018-12-26T11:07:06.418Z,3.60
2018-12-26T11:09:35.549Z,3.60
2018-12-26T11:12:02.115Z,3.60
2018-12-26T11:14:28.449Z,3.60
2018-12-26T11:16:55.136Z,3.60
2018-12-26T11:19:21.637Z,3.60
2018-12-26T11:21:48.359Z,3.70
2018-12-26T11:24:15.050Z,3.60
2018-12-26T11:26:41.793Z,3.70
2018-12-26T11:29:08.175Z,3.60
2018-12-26T11:31:34.683Z,3.60
2018-12-26T11:34:01.209Z,3.60
2018-12-26T11:36:28.082Z,3.70
2018-12-26T11:38:54.689Z,3.60
2018-12-26T11:41:21.118Z,3.60
2018-12-26T11:43:48.255Z,3.60
2018-12-26T11:46:14.882Z,3.60
2018-12-26T11:48:41.479Z,3.70
2018-12-26T11:51:07.968Z,3.70
2018-12-26T11:53:34.480Z,3.70
2018-12-26T11:56:01.070Z,3.70
2018-12-26T11:58:27.738Z,3.70
2018-12-26T12:00:54.326Z,3.70
2018-12-26T12:03:20.788Z,3.80
2018-12-26T12:05:47.374Z,3.80
2018-12-26T12:08:13.992Z,3.80
2018-12-26T12:10:40.584Z,3.80
2018-12-26T12:13:07.258Z,3.80
2018-12-26T12:15:33.741Z,3.80
2018-12-26T12:18:00.242Z,3.80
2018-12-26T12:20:26.743Z,3.80
2018-12-26T12:22:53.254Z,3.80
2018-12-26T12:25:19.685Z,3.80
2018-12-26T12:27:46.276Z,3.80
2018-12-26T12:30:12.788Z,3.80
2018-12-26T12:32:39.295Z,3.80
2018-12-26T12:35:06.216Z,3.80
2018-12-26T12:37:32.781Z,3.80
2018-12-26T12:39:59.313Z,3.70
2018-12-26T12:42:25.887Z,3.80
2018-12-26T12:44:52.419Z,3.80
2018-12-26T12:47:18.901Z,3.80
2018-12-26T12:49:45.527Z,3.80
2018-12-26T12:52:12.048Z,3.90
2018-12-26T12:54:38.358Z,3.90
2018-12-26T12:57:04.921Z,3.90
2018-12-26T12:59:31.692Z,3.90
2018-12-26T13:01:58.197Z,3.90
2018-12-26T13:04:26.570Z,3.90
2018-12-26T13:06:53.155Z,3.90
2018-12-26T13:09:19.703Z,3.90
2018-12-26T13:11:46.211Z,3.90
2018-12-26T13:14:12.877Z,3.80
2018-12-26T13:16:39.492Z,3.80
2018-12-26T13:19:06.093Z,3.80
2018-12-26T13:21:33.884Z,3.80
2018-12-26T13:24:00.494Z,3.80
2018-12-26T13:26:26.987Z,3.80
2018-12-26T13:28:53.464Z,3.80
2018-12-26T13:31:19.822Z,3.70
2018-12-26T13:33:46.352Z,3.70
2018-12-26T13:36:12.811Z,3.70
2018-12-26T13:38:39.171Z,3.70
2018-12-26T13:41:05.676Z,3.60
2018-12-26T13:43:32.162Z,3.60
2018-12-26T13:45:58.739Z,3.60
2018-12-26T13:48:25.224Z,3.60
2018-12-26T13:50:51.532Z,3.50
2018-12-26T13:53:18.790Z,3.50
2018-12-26T13:55:46.796Z,3.50
2018-12-26T13:58:13.231Z,3.50
2018-12-26T14:00:39.841Z,3.40
2018-12-26T14:03:13.353Z,3.40
2018-12-26T14:05:39.642Z,3.40
2018-12-26T14:08:06.123Z,3.40
2018-12-26T14:10:32.751Z,3.40
2018-12-26T14:12:59.163Z,3.30
2018-12-26T14:15:25.634Z,3.30
2018-12-26T14:17:52.228Z,3.30
2018-12-26T14:20:18.708Z,3.30
2018-12-26T14:22:44.992Z,3.30
2018-12-26T14:25:11.514Z,3.20
2018-12-26T14:27:37.911Z,3.20
2018-12-26T14:30:11.085Z,3.20
2018-12-26T14:32:34.448Z,3.20
2018-12-26T14:35:00.937Z,3.10
2018-12-26T14:37:27.506Z,3.20
2018-12-26T14:39:53.838Z,3.20
2018-12-26T14:42:20.321Z,3.10
2018-12-26T14:44:46.890Z,3.10
2018-12-26T14:47:13.444Z,3.10
2018-12-26T14:49:40.013Z,3.10
2018-12-26T14:52:06.536Z,3.10
2018-12-26T14:54:33.282Z,3.10
2018-12-26T14:56:59.777Z,3.10
2018-12-26T14:59:26.332Z,3.00
2018-12-26T15:01:52.820Z,3.00
2018-12-26T15:04:19.222Z,3.00
2018-12-26T15:06:45.859Z,3.00
2018-12-26T15:09:14.263Z,3.00
2018-12-26T15:11:40.817Z,3.00
2018-12-26T15:14:07.214Z,3.00
2018-12-26T15:16:33.642Z,3.00
2018-12-26T15:19:14.449Z,3.00
2018-12-26T15:21:40.835Z,3.00
2018-12-26T15:24:07.343Z,3.00
2018-12-26T15:26:33.851Z,3.00
2018-12-26T15:29:00.332Z,2.90
2018-12-26T15:31:26.852Z,3.00
2018-12-26T15:33:53.357Z,3.00
2018-12-26T15:36:20.134Z,2.90
2018-12-26T15:42:27.788Z,3.00
2018-12-26T15:44:54.350Z,3.00
2018-12-26T15:47:20.952Z,3.00
2018-12-26T15:49:47.516Z,3.00
2018-12-26T15:52:14.035Z,3.00
2018-12-26T15:54:41.068Z,3.00
2018-12-26T15:57:07.531Z,3.00
2018-12-26T15:59:34.082Z,3.10
2018-12-26T16:02:00.562Z,3.10
2018-12-26T16:04:27.734Z,3.10
2018-12-26T16:06:54.135Z,3.10
2018-12-26T16:09:20.733Z,3.20
2018-12-26T16:11:49.328Z,3.10
2018-12-26T16:14:17.826Z,3.20
2018-12-26T16:16:44.325Z,3.20
2018-12-26T16:19:10.848Z,3.20
2018-12-26T16:21:38.940Z,3.20
2018-12-26T16:24:05.457Z,3.20
2018-12-26T16:26:31.933Z,3.30
2018-12-26T16:28:58.426Z,3.30
2018-12-26T16:31:24.819Z,3.30
2018-12-26T16:33:51.225Z,3.30
2018-12-26T16:36:17.758Z,3.30
2018-12-26T16:38:44.054Z,3.30
2018-12-26T16:41:10.536Z,3.30
2018-12-26T16:43:37.102Z,3.30
2018-12-26T16:46:03.491Z,3.30
2018-12-26T16:48:30.079Z,3.30
2018-12-26T16:50:57.155Z,3.30
2018-12-26T16:53:23.646Z,3.40
2018-12-26T16:55:50.557Z,3.40
2018-12-26T16:58:17.017Z,3.40
2018-12-26T17:00:43.530Z,3.40
2018-12-26T17:03:10.027Z,3.40
2018-12-26T17:05:36.434Z,3.40
2018-12-26T17:08:02.919Z,3.40
2018-12-26T17:10:29.417Z,3.40
2018-12-26T17:12:56.106Z,3.40
2018-12-26T17:15:22.714Z,3.40
2018-12-26T17:17:49.161Z,3.40
2018-12-26T17:20:21.878Z,3.40
2018-12-26T17:22:48.366Z,3.50
2018-12-26T17:25:17.858Z,3.50
2018-12-26T17:27:44.445Z,3.50
2018-12-26T17:30:10.864Z,3.50
2018-12-26T17:32:37.726Z,3.50
2018-12-26T17:35:04.419Z,3.50
2018-12-26T17:37:32.370Z,3.50
2018-12-26T17:39:58.988Z,3.50
2018-12-26T17:42:25.654Z,3.60
2018-12-26T17:44:52.151Z,3.60
2018-12-26T17:47:19.055Z,3.50
2018-12-26T17:49:45.939Z,3.50
2018-12-26T17:52:12.737Z,3.60
2018-12-26T17:54:42.376Z,3.60
2018-12-26T17:57:09.465Z,3.60
2018-12-26T17:59:41.325Z,3.60
2018-12-26T18:02:17.302Z,3.60
2018-12-26T18:04:47.791Z,3.60
2018-12-26T18:07:16.563Z,3.60
2018-12-26T18:09:43.172Z,3.60
2018-12-26T18:12:12.307Z,3.60
2018-12-26T18:14:49.938Z,3.60
2018-12-26T18:17:25.314Z,3.60
2018-12-26T18:19:58.415Z,3.60
2018-12-26T18:22:24.896Z,3.60
2018-12-26T18:24:51.758Z,3.60
2018-12-26T18:27:18.144Z,3.60
2018-12-26T18:29:44.963Z,3.60
2018-12-26T18:32:11.812Z,3.60
2018-12-26T18:34:39.793Z,3.60
2018-12-26T18:37:06.954Z,3.60
2018-12-26T18:39:33.398Z,3.60
2018-12-26T18:41:59.797Z,3.60
2018-12-26T18:44:26.342Z,3.60
2018-12-26T18:46:52.911Z,3.60
2018-12-26T18:49:19.514Z,3.60
2018-12-26T18:51:45.954Z,3.60
2018-12-26T18:54:12.484Z,3.60
2018-12-26T18:56:38.971Z,3.60
2018-12-26T18:59:05.446Z,3.60
2018-12-26T19:01:32.017Z,3.60
2018-12-26T19:03:58.527Z,3.60
2018-12-26T19:06:24.814Z,3.60
2018-12-26T19:08:51.304Z,3.60
2018-12-26T19:11:17.762Z,3.60
2018-12-26T19:13:44.081Z,3.60
2018-12-26T19:16:10.665Z,3.60
2018-12-26T19:18:37.065Z,3.70
2018-12-26T19:21:03.522Z,3.60
2018-12-26T19:23:30.035Z,3.60
2018-12-26T19:25:56.582Z,3.60
2018-12-26T19:28:23.211Z,3.60
2018-12-26T19:30:49.747Z,3.60
2018-12-26T19:33:16.235Z,3.70
2018-12-26T19:35:42.769Z,3.60
2018-12-26T19:38:09.174Z,3.70
2018-12-26T19:40:35.570Z,3.70
2018-12-26T19:43:02.196Z,3.70
2018-12-26T19:45:28.788Z,3.70
2018-12-26T19:47:55.278Z,3.70
2018-12-26T19:50:21.758Z,3.70
2018-12-26T19:52:48.374Z,3.70
2018-12-26T19:55:14.948Z,3.70
2018-12-26T19:57:42.059Z,3.70
2018-12-26T20:00:09.374Z,3.70
2018-12-26T20:02:35.824Z,3.70
2018-12-26T20:05:03.771Z,3.70
2018-12-26T20:07:30.377Z,3.70
2018-12-26T20:09:56.874Z,3.70
2018-12-26T20:12:23.258Z,3.70
2018-12-26T20:14:49.949Z,3.70
2018-12-26T20:17:16.397Z,3.70
2018-12-26T20:19:42.889Z,3.70
2018-12-26T20:22:09.384Z,3.70
2018-12-26T20:24:35.859Z,3.70
2018-12-26T20:27:02.376Z,3.70
2018-12-26T20:29:28.819Z,3.70
2018-12-26T20:31:57.000Z,3.70
2018-12-26T20:34:23.628Z,3.70
2018-12-26T20:36:50.087Z,3.70
2018-12-26T20:39:16.537Z,3.70
2018-12-26T20:41:43.015Z,3.70
2018-12-26T20:44:09.605Z,3.60
2018-12-26T20:46:36.182Z,3.60
2018-12-26T20:49:02.625Z,3.60
2018-12-26T20:51:29.098Z,3.60
2018-12-26T20:53:55.487Z,3.60
2018-12-26T20:56:21.856Z,3.50
2018-12-26T20:58:48.309Z,3.50
2018-12-26T21:01:14.677Z,3.60
2018-12-26T21:03:41.047Z,3.50
2018-12-26T21:06:08.650Z,3.60
2018-12-26T21:08:35.167Z,3.60
2018-12-26T21:11:01.736Z,3.50
2018-12-26T21:13:28.228Z,3.50
2018-12-26T21:15:54.602Z,3.60
2018-12-26T21:18:21.112Z,3.60
2018-12-26T21:20:49.490Z,3.50
2018-12-26T21:23:15.650Z,3.50
2018-12-26T21:25:42.096Z,3.50
2018-12-26T21:28:08.612Z,3.60
2018-12-26T21:30:35.072Z,3.60
2018-12-26T21:33:01.562Z,3.50
2018-12-26T21:35:28.063Z,3.50
2018-12-26T21:37:54.386Z,3.50
2018-12-26T21:40:20.874Z,3.50
2018-12-26T21:42:47.369Z,3.50
2018-12-26T21:45:13.891Z,3.50
2018-12-26T21:47:40.247Z,3.50
2018-12-26T21:50:09.081Z,3.50
2018-12-26T21:52:35.457Z,3.50
2018-12-26T21:55:01.955Z,3.50
2018-12-26T21:57:28.424Z,3.50
2018-12-26T21:59:55.048Z,3.50
2018-12-26T22:02:22.517Z,3.50
2018-12-26T22:04:51.585Z,3.50
2018-12-26T22:07:18.128Z,3.50
2018-12-26T22:09:44.604Z,3.40
2018-12-26T22:12:11.124Z,3.40
2018-12-26T22:14:37.881Z,3.50
2018-12-26T22:17:04.442Z,3.50
2018-12-26T22:19:30.916Z,3.50
2018-12-26T22:21:57.764Z,3.50
2018-12-26T22:24:24.288Z,3.50
2018-12-26T22:26:50.748Z,3.50
2018-12-26T22:29:17.628Z,3.50
2018-12-26T22:31:44.126Z,3.50
2018-12-26T22:34:10.594Z,3.50
2018-12-26T22:36:37.461Z,3.50
2018-12-26T22:39:04.955Z,3.50
2018-12-26T22:41:31.570Z,3.50
2018-12-26T22:43:58.098Z,3.50
2018-12-26T22:46:24.563Z,3.50
2018-12-26T22:48:51.056Z,3.50
2018-12-26T22:51:17.534Z,3.50
2018-12-26T22:53:43.879Z,3.50
2018-12-26T22:56:10.455Z,3.50
2018-12-26T22:58:37.499Z,3.50
2018-12-26T23:01:04.089Z,3.50
2018-12-26T23:03:30.683Z,3.50
2018-12-26T23:05:57.126Z,3.50
2018-12-26T23:08:23.482Z,3.50
2018-12-26T23:10:50.006Z,3.50
2018-12-26T23:13:16.731Z,3.50
2018-12-26T23:15:43.304Z,3.40
2018-12-26T23:18:09.784Z,3.40
2018-12-26T23:20:36.391Z,3.40
2018-12-26T23:23:02.897Z,3.40
2018-12-26T23:25:29.381Z,3.40
2018-12-26T23:27:57.268Z,3.40
2018-12-26T23:30:23.801Z,3.40
2018-12-26T23:32:50.293Z,3.40
2018-12-26T23:35:16.921Z,3.40
2018-12-26T23:37:43.396Z,3.40
2018-12-26T23:40:09.903Z,3.40
2018-12-26T23:42:36.662Z,3.40
2018-12-26T23:45:03.648Z,3.40
2018-12-26T23:47:30.144Z,3.40
2018-12-26T23:49:56.605Z,3.40
2018-12-26T23:52:23.031Z,3.30
2018-12-26T23:54:49.497Z,3.30
2018-12-26T23:57:16.310Z,3.30
2018-12-26T23:59:42.911Z,3.20
